18PN weather

Spud View Airport
Upper Strasburg, Pennsylvania, United States

Public forecast

Using degrees Fahrenheit for public forecast. Weather courtesy of forecast.io.

Closest aviation weather report (METAR) to Spud View Airport

Closest report is Hagerstown Regional Richard A Henson Field, 21.5 nm (39.9 km) S. Retrieved 2020/06/03 16:53 UTC (12 minutes ago):

KHGR 031653Z 24012G20KT 10SM SCT100 30/17 A2973 RMK AO2 SLP070 T03000172

Closest aviation forecast (TAF) to Spud View Airport

Closest forecast is Altoona Blair County Airport, 31.9 nm (59.2 km) WNW. Retrieved 2020/06/03 12:40 UTC (4 hours ago):

TAF KAOO 031138Z 0312/0412 25010G20KT P6SM SCT050 BKN100 FM031500 26018G25KT P6SM BKN050 FM032000 27015G25KT P6SM VCTS BKN050CB TEMPO 0320/0324 3SM +TSRA OVC025CB FM040300 27008KT P6SM OVC050 FM040700 23004KT P6SM BKN060